Andersontown, Pennsylvania
Current Conditions -  °F | °C
As of 5:56 PM on Wednesday 22 Oct 2014 (Local Time) from KCXY Reporting Station
Overcast Overcast  
Wind Chill: 55°   Ceiling: 2800
Heat Index: 55°   Visibility: 10mi
Dew Point: 44°   Wind: 12mph
Humidity: 67%   Direction: 350°N
Pressure: 29.97"   Gusts: 25mph
Location:  40.208°N, 77.0098°W
Report Text: KCXY 222156Z 35010G22KT 10SM OVC028 13/07 A2997 RMK AO2 RAB2058E10 SLP151 P0000 T01280067
Loading
Personal Weather Stations






























Interactive Weather Map
Tropical Storm Tracking
New forecast layout! Learn more

10-Day Weather Forecast

Advertisements
Track Severe Weather on mobile